sensor_id;sensor_type;location;lat;lon;timestamp;temperature;humidity
16040;DHT22;8124;48.634;8.120;2023-04-25T00:04:36;13.10;99.90
16040;DHT22;8124;48.634;8.120;2023-04-25T00:09:40;13.10;99.90
16040;DHT22;8124;48.634;8.120;2023-04-25T00:14:43;13.00;99.90
16040;DHT22;8124;48.634;8.120;2023-04-25T00:19:48;13.00;99.90
16040;DHT22;8124;48.634;8.120;2023-04-25T00:24:51;13.00;99.90
16040;DHT22;8124;48.634;8.120;2023-04-25T00:29:58;12.90;99.90
16040;DHT22;8124;48.634;8.120;2023-04-25T00:35:03;12.90;99.90
16040;DHT22;8124;48.634;8.120;2023-04-25T00:40:07;12.80;99.90
16040;DHT22;8124;48.634;8.120;2023-04-25T00:45:13;12.80;99.90
16040;DHT22;8124;48.634;8.120;2023-04-25T00:50:27;12.60;99.90
16040;DHT22;8124;48.634;8.120;2023-04-25T00:55:30;12.70;99.90
16040;DHT22;8124;48.634;8.120;2023-04-25T01:00:34;12.60;99.90
16040;DHT22;8124;48.634;8.120;2023-04-25T01:05:39;12.60;99.90
16040;DHT22;8124;48.634;8.120;2023-04-25T01:10:43;12.40;99.90
16040;DHT22;8124;48.634;8.120;2023-04-25T01:15:46;12.40;99.90
16040;DHT22;8124;48.634;8.120;2023-04-25T01:20:51;12.10;99.90
16040;DHT22;8124;48.634;8.120;2023-04-25T01:25:56;12.20;99.90
16040;DHT22;8124;48.634;8.120;2023-04-25T01:30:59;12.40;99.90
16040;DHT22;8124;48.634;8.120;2023-04-25T01:36:03;12.40;99.90
16040;DHT22;8124;48.634;8.120;2023-04-25T01:41:08;12.40;99.90
16040;DHT22;8124;48.634;8.120;2023-04-25T01:46:11;12.30;99.90
16040;DHT22;8124;48.634;8.120;2023-04-25T01:51:14;12.30;99.90
16040;DHT22;8124;48.634;8.120;2023-04-25T01:56:19;12.20;99.90
16040;DHT22;8124;48.634;8.120;2023-04-25T02:01:22;12.10;99.90
16040;DHT22;8124;48.634;8.120;2023-04-25T02:06:43;12.00;99.90
16040;DHT22;8124;48.634;8.120;2023-04-25T02:11:48;11.80;99.90
16040;DHT22;8124;48.634;8.120;2023-04-25T02:17:04;11.70;99.90
16040;DHT22;8124;48.634;8.120;2023-04-25T02:22:08;11.80;99.90
16040;DHT22;8124;48.634;8.120;2023-04-25T02:27:13;11.90;99.90
16040;DHT22;8124;48.634;8.120;2023-04-25T02:32:16;11.90;99.90
16040;DHT22;8124;48.634;8.120;2023-04-25T02:37:21;11.90;99.90
16040;DHT22;8124;48.634;8.120;2023-04-25T02:42:27;12.00;99.90
16040;DHT22;8124;48.634;8.120;2023-04-25T02:47:31;12.00;99.90
16040;DHT22;8124;48.634;8.120;2023-04-25T02:52:34;12.10;99.90
16040;DHT22;8124;48.634;8.120;2023-04-25T02:57:47;12.00;99.90
16040;DHT22;8124;48.634;8.120;2023-04-25T03:03:01;12.00;99.90
16040;DHT22;8124;48.634;8.120;2023-04-25T03:08:04;11.90;99.90
16040;DHT22;8124;48.634;8.120;2023-04-25T03:13:09;12.00;99.90
16040;DHT22;8124;48.634;8.120;2023-04-25T03:18:15;12.10;99.90
16040;DHT22;8124;48.634;8.120;2023-04-25T03:23:18;11.90;99.90
16040;DHT22;8124;48.634;8.120;2023-04-25T03:28:22;11.90;99.90
16040;DHT22;8124;48.634;8.120;2023-04-25T03:33:25;12.20;99.90
16040;DHT22;8124;48.634;8.120;2023-04-25T03:38:28;12.10;99.90
16040;DHT22;8124;48.634;8.120;2023-04-25T03:43:34;12.10;99.90
16040;DHT22;8124;48.634;8.120;2023-04-25T03:48:41;12.00;99.90
16040;DHT22;8124;48.634;8.120;2023-04-25T03:53:52;12.00;99.90
16040;DHT22;8124;48.634;8.120;2023-04-25T03:59:14;11.80;99.90
16040;DHT22;8124;48.634;8.120;2023-04-25T04:04:19;12.00;99.90
16040;DHT22;8124;48.634;8.120;2023-04-25T04:09:22;11.80;99.90
16040;DHT22;8124;48.634;8.120;2023-04-25T04:14:27;11.70;99.90
16040;DHT22;8124;48.634;8.120;2023-04-25T04:19:30;11.60;99.90
16040;DHT22;8124;48.634;8.120;2023-04-25T04:24:40;11.50;99.90
16040;DHT22;8124;48.634;8.120;2023-04-25T04:29:48;11.40;99.90
16040;DHT22;8124;48.634;8.120;2023-04-25T04:35:00;11.50;99.90
16040;DHT22;8124;48.634;8.120;2023-04-25T04:40:04;11.30;99.90
16040;DHT22;8124;48.634;8.120;2023-04-25T04:45:32;11.20;99.90
16040;DHT22;8124;48.634;8.120;2023-04-25T04:51:05;11.20;99.90
16040;DHT22;8124;48.634;8.120;2023-04-25T04:56:27;11.20;99.90
16040;DHT22;8124;48.634;8.120;2023-04-25T05:01:52;11.20;99.90
16040;DHT22;8124;48.634;8.120;2023-04-25T05:07:07;11.20;99.90
16040;DHT22;8124;48.634;8.120;2023-04-25T05:12:21;11.30;99.90
16040;DHT22;8124;48.634;8.120;2023-04-25T05:17:42;11.40;99.90
16040;DHT22;8124;48.634;8.120;2023-04-25T05:23:11;11.30;99.90
16040;DHT22;8124;48.634;8.120;2023-04-25T05:28:36;11.40;99.90
16040;DHT22;8124;48.634;8.120;2023-04-25T05:34:11;11.30;99.90
16040;DHT22;8124;48.634;8.120;2023-04-25T05:39:20;11.50;99.90
16040;DHT22;8124;48.634;8.120;2023-04-25T05:44:46;11.50;99.90
16040;DHT22;8124;48.634;8.120;2023-04-25T05:50:09;11.60;99.90
16040;DHT22;8124;48.634;8.120;2023-04-25T05:55:25;11.50;99.90
16040;DHT22;8124;48.634;8.120;2023-04-25T06:00:29;11.30;99.90
16040;DHT22;8124;48.634;8.120;2023-04-25T06:05:33;11.20;99.90
16040;DHT22;8124;48.634;8.120;2023-04-25T06:10:36;11.00;99.90
16040;DHT22;8124;48.634;8.120;2023-04-25T06:15:39;10.70;99.90
16040;DHT22;8124;48.634;8.120;2023-04-25T06:20:43;10.60;99.90
16040;DHT22;8124;48.634;8.120;2023-04-25T06:25:46;10.20;99.90
16040;DHT22;8124;48.634;8.120;2023-04-25T06:30:50;10.30;99.90
16040;DHT22;8124;48.634;8.120;2023-04-25T06:35:55;10.20;99.90
16040;DHT22;8124;48.634;8.120;2023-04-25T06:41:01;10.20;99.90
16040;DHT22;8124;48.634;8.120;2023-04-25T06:46:07;10.20;99.90
16040;DHT22;8124;48.634;8.120;2023-04-25T06:51:18;10.40;99.90
16040;DHT22;8124;48.634;8.120;2023-04-25T06:56:28;10.40;99.90
16040;DHT22;8124;48.634;8.120;2023-04-25T07:01:41;10.50;99.90
16040;DHT22;8124;48.634;8.120;2023-04-25T07:06:50;10.60;99.90
16040;DHT22;8124;48.634;8.120;2023-04-25T07:11:58;10.60;99.90
16040;DHT22;8124;48.634;8.120;2023-04-25T07:17:02;10.60;99.90
16040;DHT22;8124;48.634;8.120;2023-04-25T07:22:10;10.50;99.90
16040;DHT22;8124;48.634;8.120;2023-04-25T07:27:16;10.50;99.90
16040;DHT22;8124;48.634;8.120;2023-04-25T07:32:39;10.20;99.90
16040;DHT22;8124;48.634;8.120;2023-04-25T07:37:44;9.80;99.90
16040;DHT22;8124;48.634;8.120;2023-04-25T07:42:50;10.00;99.90
16040;DHT22;8124;48.634;8.120;2023-04-25T07:48:03;10.00;99.90
16040;DHT22;8124;48.634;8.120;2023-04-25T07:53:11;10.10;99.90
16040;DHT22;8124;48.634;8.120;2023-04-25T07:58:22;9.90;99.90
16040;DHT22;8124;48.634;8.120;2023-04-25T08:03:30;9.80;99.90
16040;DHT22;8124;48.634;8.120;2023-04-25T08:08:35;9.70;99.90
16040;DHT22;8124;48.634;8.120;2023-04-25T08:13:45;9.90;99.90
16040;DHT22;8124;48.634;8.120;2023-04-25T08:18:49;10.00;99.90
16040;DHT22;8124;48.634;8.120;2023-04-25T08:23:55;10.00;99.90
16040;DHT22;8124;48.634;8.120;2023-04-25T08:29:03;10.10;99.90
16040;DHT22;8124;48.634;8.120;2023-04-25T08:34:09;10.00;99.90
16040;DHT22;8124;48.634;8.120;2023-04-25T08:39:20;10.20;99.90
16040;DHT22;8124;48.634;8.120;2023-04-25T08:44:42;10.20;99.90
16040;DHT22;8124;48.634;8.120;2023-04-25T08:49:46;10.20;99.90
16040;DHT22;8124;48.634;8.120;2023-04-25T08:54:53;10.00;99.90
16040;DHT22;8124;48.634;8.120;2023-04-25T08:59:58;10.20;99.90
16040;DHT22;8124;48.634;8.120;2023-04-25T09:05:02;10.20;99.90
16040;DHT22;8124;48.634;8.120;2023-04-25T09:10:08;10.10;99.90
16040;DHT22;8124;48.634;8.120;2023-04-25T09:15:13;10.10;99.90
16040;DHT22;8124;48.634;8.120;2023-04-25T09:20:41;10.00;99.90
16040;DHT22;8124;48.634;8.120;2023-04-25T09:26:07;10.00;99.90
16040;DHT22;8124;48.634;8.120;2023-04-25T09:31:10;10.00;99.90
16040;DHT22;8124;48.634;8.120;2023-04-25T09:36:26;10.30;99.90
16040;DHT22;8124;48.634;8.120;2023-04-25T09:41:57;10.40;99.90
16040;DHT22;8124;48.634;8.120;2023-04-25T09:47:00;10.50;99.90
16040;DHT22;8124;48.634;8.120;2023-04-25T09:52:05;10.80;99.90
16040;DHT22;8124;48.634;8.120;2023-04-25T09:57:21;10.70;99.90
16040;DHT22;8124;48.634;8.120;2023-04-25T10:02:27;10.70;99.90
16040;DHT22;8124;48.634;8.120;2023-04-25T10:07:38;10.70;99.90
16040;DHT22;8124;48.634;8.120;2023-04-25T10:12:50;10.60;99.90
16040;DHT22;8124;48.634;8.120;2023-04-25T10:17:54;10.70;99.90
16040;DHT22;8124;48.634;8.120;2023-04-25T10:23:03;10.70;99.90
16040;DHT22;8124;48.634;8.120;2023-04-25T10:28:10;10.70;99.90
16040;DHT22;8124;48.634;8.120;2023-04-25T10:33:17;10.70;99.90
16040;DHT22;8124;48.634;8.120;2023-04-25T10:38:20;10.60;99.90
16040;DHT22;8124;48.634;8.120;2023-04-25T10:43:40;10.50;99.90
16040;DHT22;8124;48.634;8.120;2023-04-25T10:48:46;10.70;99.90
16040;DHT22;8124;48.634;8.120;2023-04-25T10:54:00;10.70;99.90
16040;DHT22;8124;48.634;8.120;2023-04-25T10:59:12;10.70;99.90
16040;DHT22;8124;48.634;8.120;2023-04-25T11:04:25;10.70;99.90
16040;DHT22;8124;48.634;8.120;2023-04-25T11:09:32;10.90;99.90
16040;DHT22;8124;48.634;8.120;2023-04-25T11:14:37;10.80;99.90
16040;DHT22;8124;48.634;8.120;2023-04-25T11:19:41;10.90;99.90
16040;DHT22;8124;48.634;8.120;2023-04-25T11:24:45;10.90;99.90
16040;DHT22;8124;48.634;8.120;2023-04-25T11:29:49;10.80;99.90
16040;DHT22;8124;48.634;8.120;2023-04-25T11:34:52;10.90;99.90
16040;DHT22;8124;48.634;8.120;2023-04-25T11:39:56;11.00;99.90
16040;DHT22;8124;48.634;8.120;2023-04-25T11:45:00;11.20;99.90
16040;DHT22;8124;48.634;8.120;2023-04-25T11:50:09;11.40;99.90
16040;DHT22;8124;48.634;8.120;2023-04-25T11:55:14;11.70;99.90
16040;DHT22;8124;48.634;8.120;2023-04-25T12:00:20;12.00;99.90
16040;DHT22;8124;48.634;8.120;2023-04-25T12:05:26;12.10;99.90
16040;DHT22;8124;48.634;8.120;2023-04-25T12:10:37;12.40;99.90
16040;DHT22;8124;48.634;8.120;2023-04-25T12:15:41;12.60;99.90
16040;DHT22;8124;48.634;8.120;2023-04-25T12:20:44;12.60;99.90
16040;DHT22;8124;48.634;8.120;2023-04-25T12:25:47;12.80;99.90
16040;DHT22;8124;48.634;8.120;2023-04-25T12:30:56;12.60;99.90
16040;DHT22;8124;48.634;8.120;2023-04-25T12:36:01;13.20;99.90
16040;DHT22;8124;48.634;8.120;2023-04-25T12:41:10;13.40;99.90
16040;DHT22;8124;48.634;8.120;2023-04-25T12:46:14;12.80;99.90
16040;DHT22;8124;48.634;8.120;2023-04-25T12:51:17;12.50;99.90
16040;DHT22;8124;48.634;8.120;2023-04-25T12:56:20;12.40;99.90
16040;DHT22;8124;48.634;8.120;2023-04-25T13:01:27;11.50;99.90
16040;DHT22;8124;48.634;8.120;2023-04-25T13:06:30;10.70;99.90
16040;DHT22;8124;48.634;8.120;2023-04-25T13:11:33;10.30;99.90
16040;DHT22;8124;48.634;8.120;2023-04-25T13:16:38;10.20;99.90
16040;DHT22;8124;48.634;8.120;2023-04-25T13:21:41;10.50;99.90
16040;DHT22;8124;48.634;8.120;2023-04-25T13:26:44;10.90;99.90
16040;DHT22;8124;48.634;8.120;2023-04-25T13:31:48;11.20;99.90
16040;DHT22;8124;48.634;8.120;2023-04-25T13:36:51;11.60;99.90
16040;DHT22;8124;48.634;8.120;2023-04-25T13:41:55;11.80;99.90
16040;DHT22;8124;48.634;8.120;2023-04-25T13:46:59;12.10;99.90
16040;DHT22;8124;48.634;8.120;2023-04-25T13:52:02;12.20;99.90
16040;DHT22;8124;48.634;8.120;2023-04-25T13:57:05;12.50;99.90
16040;DHT22;8124;48.634;8.120;2023-04-25T14:02:10;12.60;99.90
16040;DHT22;8124;48.634;8.120;2023-04-25T14:07:13;12.70;99.90
16040;DHT22;8124;48.634;8.120;2023-04-25T14:12:17;12.80;99.90
16040;DHT22;8124;48.634;8.120;2023-04-25T14:17:22;12.80;99.90
16040;DHT22;8124;48.634;8.120;2023-04-25T14:22:25;12.60;99.90
16040;DHT22;8124;48.634;8.120;2023-04-25T14:27:29;12.60;99.90
16040;DHT22;8124;48.634;8.120;2023-04-25T14:32:35;12.70;99.90
16040;DHT22;8124;48.634;8.120;2023-04-25T14:37:38;12.80;99.90
16040;DHT22;8124;48.634;8.120;2023-04-25T14:42:41;12.80;99.90
16040;DHT22;8124;48.634;8.120;2023-04-25T14:47:46;13.20;99.90
16040;DHT22;8124;48.634;8.120;2023-04-25T14:52:49;13.30;99.90
16040;DHT22;8124;48.634;8.120;2023-04-25T14:57:53;13.30;99.90
16040;DHT22;8124;48.634;8.120;2023-04-25T15:02:59;13.30;99.90
16040;DHT22;8124;48.634;8.120;2023-04-25T15:08:03;13.30;99.90
16040;DHT22;8124;48.634;8.120;2023-04-25T15:13:06;13.60;99.90
16040;DHT22;8124;48.634;8.120;2023-04-25T15:18:10;13.40;99.90
16040;DHT22;8124;48.634;8.120;2023-04-25T15:23:15;13.10;99.90
16040;DHT22;8124;48.634;8.120;2023-04-25T15:28:18;13.40;99.90
16040;DHT22;8124;48.634;8.120;2023-04-25T15:33:24;13.30;99.90
16040;DHT22;8124;48.634;8.120;2023-04-25T15:38:28;13.50;99.90
16040;DHT22;8124;48.634;8.120;2023-04-25T15:43:32;13.60;99.90
16040;DHT22;8124;48.634;8.120;2023-04-25T15:48:38;13.50;99.90
16040;DHT22;8124;48.634;8.120;2023-04-25T15:53:42;13.20;99.90
16040;DHT22;8124;48.634;8.120;2023-04-25T15:58:45;13.00;99.90
16040;DHT22;8124;48.634;8.120;2023-04-25T16:03:49;12.80;99.90
16040;DHT22;8124;48.634;8.120;2023-04-25T16:08:53;12.70;99.90
16040;DHT22;8124;48.634;8.120;2023-04-25T16:13:56;12.20;99.90
16040;DHT22;8124;48.634;8.120;2023-04-25T16:19:01;12.00;99.90
16040;DHT22;8124;48.634;8.120;2023-04-25T16:24:04;11.40;99.90
16040;DHT22;8124;48.634;8.120;2023-04-25T16:29:07;10.70;99.90
16040;DHT22;8124;48.634;8.120;2023-04-25T16:34:11;10.80;99.90
16040;DHT22;8124;48.634;8.120;2023-04-25T16:39:15;10.60;99.90
16040;DHT22;8124;48.634;8.120;2023-04-25T16:44:19;10.40;99.90
16040;DHT22;8124;48.634;8.120;2023-04-25T16:49:23;10.40;99.90
16040;DHT22;8124;48.634;8.120;2023-04-25T16:54:27;10.60;99.90
16040;DHT22;8124;48.634;8.120;2023-04-25T16:59:35;10.80;99.90
16040;DHT22;8124;48.634;8.120;2023-04-25T17:04:48;10.70;99.90
16040;DHT22;8124;48.634;8.120;2023-04-25T17:09:51;11.10;99.90
16040;DHT22;8124;48.634;8.120;2023-04-25T17:14:54;11.30;99.90
16040;DHT22;8124;48.634;8.120;2023-04-25T17:19:58;11.30;99.90
16040;DHT22;8124;48.634;8.120;2023-04-25T17:25:01;11.50;99.90
16040;DHT22;8124;48.634;8.120;2023-04-25T17:30:11;11.80;99.90
16040;DHT22;8124;48.634;8.120;2023-04-25T17:35:16;11.90;99.90
16040;DHT22;8124;48.634;8.120;2023-04-25T17:40:19;12.10;99.90
16040;DHT22;8124;48.634;8.120;2023-04-25T17:45:22;11.90;99.90
16040;DHT22;8124;48.634;8.120;2023-04-25T17:50:26;11.80;99.90
16040;DHT22;8124;48.634;8.120;2023-04-25T17:55:29;11.80;99.90
16040;DHT22;8124;48.634;8.120;2023-04-25T18:00:32;11.80;99.90
16040;DHT22;8124;48.634;8.120;2023-04-25T18:05:43;11.90;99.90
16040;DHT22;8124;48.634;8.120;2023-04-25T18:10:46;11.80;99.90
16040;DHT22;8124;48.634;8.120;2023-04-25T18:15:49;11.80;99.90
16040;DHT22;8124;48.634;8.120;2023-04-25T18:20:53;12.10;99.90
16040;DHT22;8124;48.634;8.120;2023-04-25T18:26:02;11.90;99.90
16040;DHT22;8124;48.634;8.120;2023-04-25T18:31:05;11.90;99.90
16040;DHT22;8124;48.634;8.120;2023-04-25T18:36:19;11.90;99.90
16040;DHT22;8124;48.634;8.120;2023-04-25T18:41:22;11.90;99.90
16040;DHT22;8124;48.634;8.120;2023-04-25T18:46:28;11.90;99.90
16040;DHT22;8124;48.634;8.120;2023-04-25T18:51:32;11.90;99.90
16040;DHT22;8124;48.634;8.120;2023-04-25T18:56:38;11.80;99.90
16040;DHT22;8124;48.634;8.120;2023-04-25T19:01:40;11.70;99.90
16040;DHT22;8124;48.634;8.120;2023-04-25T19:06:45;11.70;99.90
16040;DHT22;8124;48.634;8.120;2023-04-25T19:11:50;12.50;99.90
16040;DHT22;8124;48.634;8.120;2023-04-25T19:16:53;12.00;99.90
16040;DHT22;8124;48.634;8.120;2023-04-25T19:21:58;11.80;99.90
16040;DHT22;8124;48.634;8.120;2023-04-25T19:27:02;11.80;99.90
16040;DHT22;8124;48.634;8.120;2023-04-25T19:32:05;11.60;99.90
16040;DHT22;8124;48.634;8.120;2023-04-25T19:37:10;11.60;99.90
16040;DHT22;8124;48.634;8.120;2023-04-25T19:42:13;11.60;99.90
16040;DHT22;8124;48.634;8.120;2023-04-25T19:47:16;11.50;99.90
16040;DHT22;8124;48.634;8.120;2023-04-25T19:52:20;11.10;99.90
16040;DHT22;8124;48.634;8.120;2023-04-25T19:57:23;11.20;99.90
16040;DHT22;8124;48.634;8.120;2023-04-25T20:02:28;11.30;99.90
16040;DHT22;8124;48.634;8.120;2023-04-25T20:07:33;11.20;99.90
16040;DHT22;8124;48.634;8.120;2023-04-25T20:12:37;11.20;99.90
16040;DHT22;8124;48.634;8.120;2023-04-25T20:17:41;11.20;99.90
16040;DHT22;8124;48.634;8.120;2023-04-25T20:22:46;11.10;99.90
16040;DHT22;8124;48.634;8.120;2023-04-25T20:27:49;11.20;99.90
16040;DHT22;8124;48.634;8.120;2023-04-25T20:32:52;11.30;99.90
16040;DHT22;8124;48.634;8.120;2023-04-25T20:37:57;11.30;99.90
16040;DHT22;8124;48.634;8.120;2023-04-25T20:43:00;11.20;99.90
16040;DHT22;8124;48.634;8.120;2023-04-25T20:48:05;11.20;99.90
16040;DHT22;8124;48.634;8.120;2023-04-25T20:53:09;11.20;99.90
16040;DHT22;8124;48.634;8.120;2023-04-25T20:58:13;11.30;99.90
16040;DHT22;8124;48.634;8.120;2023-04-25T21:03:17;11.20;99.90
16040;DHT22;8124;48.634;8.120;2023-04-25T21:08:21;11.20;99.90
16040;DHT22;8124;48.634;8.120;2023-04-25T21:13:24;11.20;99.90
16040;DHT22;8124;48.634;8.120;2023-04-25T21:18:29;11.20;99.90
16040;DHT22;8124;48.634;8.120;2023-04-25T21:23:34;11.20;99.90
16040;DHT22;8124;48.634;8.120;2023-04-25T21:28:37;11.20;99.90
16040;DHT22;8124;48.634;8.120;2023-04-25T21:33:40;11.20;99.90
16040;DHT22;8124;48.634;8.120;2023-04-25T21:38:44;11.10;99.90
16040;DHT22;8124;48.634;8.120;2023-04-25T21:43:47;11.20;99.90
16040;DHT22;8124;48.634;8.120;2023-04-25T21:48:50;11.10;99.90
16040;DHT22;8124;48.634;8.120;2023-04-25T21:53:55;11.10;99.90
16040;DHT22;8124;48.634;8.120;2023-04-25T21:59:01;11.10;99.90
16040;DHT22;8124;48.634;8.120;2023-04-25T22:04:04;11.10;99.90
16040;DHT22;8124;48.634;8.120;2023-04-25T22:09:08;11.10;99.90
16040;DHT22;8124;48.634;8.120;2023-04-25T22:14:11;11.10;99.90
16040;DHT22;8124;48.634;8.120;2023-04-25T22:19:15;11.10;99.90
16040;DHT22;8124;48.634;8.120;2023-04-25T22:24:19;11.00;99.90
16040;DHT22;8124;48.634;8.120;2023-04-25T22:29:22;10.90;99.90
16040;DHT22;8124;48.634;8.120;2023-04-25T22:34:25;10.60;99.90
16040;DHT22;8124;48.634;8.120;2023-04-25T22:39:29;10.10;99.90
16040;DHT22;8124;48.634;8.120;2023-04-25T22:44:33;9.60;99.90
16040;DHT22;8124;48.634;8.120;2023-04-25T22:49:36;9.80;99.90
16040;DHT22;8124;48.634;8.120;2023-04-25T22:54:40;9.80;99.90
16040;DHT22;8124;48.634;8.120;2023-04-25T22:59:43;9.20;99.90
16040;DHT22;8124;48.634;8.120;2023-04-25T23:04:46;9.00;99.90
16040;DHT22;8124;48.634;8.120;2023-04-25T23:09:50;9.10;99.90
16040;DHT22;8124;48.634;8.120;2023-04-25T23:14:53;9.50;99.90
16040;DHT22;8124;48.634;8.120;2023-04-25T23:19:56;9.80;99.90
16040;DHT22;8124;48.634;8.120;2023-04-25T23:25:01;9.60;99.90
16040;DHT22;8124;48.634;8.120;2023-04-25T23:30:04;9.90;99.90
16040;DHT22;8124;48.634;8.120;2023-04-25T23:35:08;10.10;99.90
16040;DHT22;8124;48.634;8.120;2023-04-25T23:40:13;10.20;99.90
16040;DHT22;8124;48.634;8.120;2023-04-25T23:45:16;10.20;99.90
16040;DHT22;8124;48.634;8.120;2023-04-25T23:50:19;10.20;99.90
16040;DHT22;8124;48.634;8.120;2023-04-25T23:55:23;10.00;99.90
